createdAt,value
2022-09-27T00:04:07.263Z,947.8
2022-09-27T00:09:08.732Z,947.81
2022-09-27T00:14:10.348Z,947.7
2022-09-27T00:19:12.452Z,947.62
2022-09-27T00:24:14.098Z,947.57
2022-09-27T00:29:16.191Z,947.6
2022-09-27T00:34:17.500Z,947.52
2022-09-27T00:39:18.865Z,947.5
2022-09-27T00:44:20.911Z,947.49
2022-09-27T00:49:22.429Z,947.39
2022-09-27T00:54:23.774Z,947.41
2022-09-27T00:59:25.919Z,947.43
2022-09-27T01:04:27.128Z,947.3
2022-09-27T01:09:28.766Z,947.27
2022-09-27T01:14:30.757Z,947.22
2022-09-27T01:19:32.522Z,947.19
2022-09-27T01:24:34.033Z,947.09
2022-09-27T01:29:35.649Z,947.04
2022-09-27T01:34:36.915Z,947
2022-09-27T01:39:38.834Z,946.94
2022-09-27T01:44:40.855Z,946.95
2022-09-27T01:49:42.776Z,946.85
2022-09-27T01:54:44.157Z,946.93
2022-09-27T01:59:45.980Z,946.86
2022-09-27T02:04:47.235Z,946.91
2022-09-27T02:09:48.694Z,946.85
2022-09-27T02:14:50.133Z,946.94
2022-09-27T02:19:52.283Z,946.9
2022-09-27T02:24:54.327Z,946.95
2022-09-27T02:29:55.626Z,946.86
2022-09-27T02:34:57.331Z,946.79
2022-09-27T02:39:59.206Z,946.7
2022-09-27T02:45:01.043Z,946.51
2022-09-27T02:50:02.570Z,946.4
2022-09-27T02:55:04.613Z,946.43
2022-09-27T03:00:05.833Z,946.41
2022-09-27T03:05:07.039Z,946.31
2022-09-27T03:10:08.953Z,946.31
2022-09-27T03:15:11.171Z,946.3
2022-09-27T03:20:12.739Z,946.22
2022-09-27T03:25:14.423Z,946.21
2022-09-27T03:30:16.534Z,946.24
2022-09-27T03:35:18.369Z,946.21
2022-09-27T03:40:19.856Z,946.16
2022-09-27T03:45:21.605Z,946.07
2022-09-27T03:50:22.927Z,945.99
2022-09-27T03:55:24.713Z,945.93
2022-09-27T04:00:26.033Z,945.93
2022-09-27T04:05:27.570Z,945.88
2022-09-27T04:10:29.264Z,945.88
2022-09-27T04:15:31.263Z,945.8
2022-09-27T04:20:32.977Z,945.87
2022-09-27T04:25:35.099Z,945.81
2022-09-27T04:30:36.814Z,945.89
2022-09-27T04:35:37.928Z,945.8
2022-09-27T04:40:39.389Z,945.89
2022-09-27T04:45:40.961Z,945.86
2022-09-27T04:50:42.814Z,945.88
2022-09-27T04:55:44.298Z,945.96
2022-09-27T05:00:46.637Z,946.07
2022-09-27T05:05:48.637Z,946.13
2022-09-27T05:10:50.455Z,946.15
2022-09-27T05:15:52.103Z,946.14
2022-09-27T05:20:53.426Z,946.25
2022-09-27T05:25:55.532Z,946.2
2022-09-27T05:30:57.295Z,946.26
2022-09-27T05:35:58.829Z,946.35
2022-09-27T05:41:00.848Z,946.44
2022-09-27T05:46:02.985Z,946.33
2022-09-27T05:51:04.426Z,946.39
2022-09-27T05:56:06.596Z,946.44
2022-09-27T06:01:08.057Z,946.49
2022-09-27T06:06:09.546Z,946.54
2022-09-27T06:11:11.263Z,946.61
2022-09-27T06:16:13.173Z,946.69
2022-09-27T06:21:14.418Z,946.68
2022-09-27T06:26:16.485Z,946.69
2022-09-27T06:31:18.456Z,946.89
2022-09-27T06:36:20.338Z,946.87
2022-09-27T06:41:22.120Z,946.97
2022-09-27T06:46:23.831Z,947.09
2022-09-27T06:51:25.536Z,947.2
2022-09-27T06:56:27.389Z,947.35
2022-09-27T07:01:29.007Z,947.37
2022-09-27T07:06:30.482Z,947.39
2022-09-27T07:11:32.369Z,947.38
2022-09-27T07:16:33.755Z,947.45
2022-09-27T07:21:35.482Z,947.5
2022-09-27T07:26:36.983Z,947.46
2022-09-27T07:31:39.232Z,947.47
2022-09-27T07:36:40.287Z,947.49
2022-09-27T07:41:42.116Z,947.59
2022-09-27T07:46:43.660Z,947.44
2022-09-27T07:51:44.884Z,947.51
2022-09-27T07:56:46.083Z,947.76
2022-09-27T08:01:47.857Z,948.03
2022-09-27T08:06:49.096Z,947.98
2022-09-27T08:06:55.430Z,948.02
2022-09-27T08:11:57.266Z,948.12
2022-09-27T08:16:59.288Z,948.1
2022-09-27T08:22:01.005Z,948.19
2022-09-27T08:27:02.814Z,948.23
2022-09-27T08:32:04.842Z,948.36
2022-09-27T08:37:06.606Z,948.42
2022-09-27T08:42:08.512Z,948.52
2022-09-27T08:47:10.541Z,948.49
2022-09-27T08:52:11.976Z,948.55
2022-09-27T09:27:24.348Z,948.53
2022-09-27T09:32:26.392Z,948.64
2022-09-27T09:37:28.339Z,948.59
2022-09-27T09:47:31.545Z,948.69
2022-09-27T09:52:32.931Z,948.69
2022-09-27T10:02:36.903Z,948.69
2022-09-27T10:07:38.102Z,948.63
2022-09-27T10:12:40.012Z,948.74
2022-09-27T10:17:41.780Z,948.77
2022-09-27T10:22:43.159Z,948.86
2022-09-27T10:27:44.629Z,948.89
2022-09-27T10:32:46.691Z,948.87
2022-09-27T10:37:48.057Z,948.92
2022-09-27T10:42:49.434Z,948.93
2022-09-27T10:47:50.948Z,948.97
2022-09-27T10:52:52.811Z,948.94
2022-09-27T10:57:54.102Z,948.95
2022-09-27T11:02:55.866Z,948.99
2022-09-27T11:07:57.079Z,949.05
2022-09-27T11:12:58.998Z,949.04
2022-09-27T11:18:00.781Z,948.99
2022-09-27T11:23:02.316Z,948.92
2022-09-27T11:28:03.717Z,948.81
2022-09-27T11:33:05.858Z,948.8
2022-09-27T11:38:07.807Z,948.8
2022-09-27T11:43:09.564Z,948.79
2022-09-27T11:48:10.854Z,948.81
2022-09-27T11:53:12.451Z,949.14
2022-09-27T11:58:13.734Z,949.11
2022-09-27T12:03:15.677Z,949.05
2022-09-27T12:08:17.557Z,949.17
2022-09-27T12:13:19.657Z,949.19
2022-09-27T12:18:21.085Z,949.27
2022-09-27T12:23:22.973Z,949.18
2022-09-27T12:28:28.064Z,949.12
2022-09-27T12:33:26.377Z,948.99
2022-09-27T12:38:28.225Z,948.98
2022-09-27T12:43:29.438Z,948.8
2022-09-27T12:48:30.766Z,948.81
2022-09-27T12:53:31.988Z,948.74
2022-09-27T12:58:34.121Z,948.85
2022-09-27T13:03:36.116Z,948.77
2022-09-27T13:08:37.326Z,948.73
2022-09-27T13:13:38.720Z,948.71
2022-09-27T13:18:40.066Z,948.66
2022-09-27T13:23:42.118Z,948.6
2022-09-27T13:28:44.180Z,948.55
2022-09-27T13:33:46.146Z,948.45
2022-09-27T13:38:47.518Z,948.37
2022-09-27T13:43:48.749Z,948.36
2022-09-27T13:48:50.629Z,948.36
2022-09-27T13:53:52.003Z,948.44
2022-09-27T13:58:54.031Z,948.44
2022-09-27T14:03:55.753Z,948.45
2022-09-27T14:08:57.627Z,948.53
2022-09-27T14:13:59.743Z,948.57
2022-09-27T14:19:01.208Z,948.62
2022-09-27T14:24:03.089Z,948.66
2022-09-27T14:29:04.997Z,948.67
2022-09-27T14:34:06.252Z,948.77
2022-09-27T14:39:07.706Z,948.78
2022-09-27T14:44:09.704Z,948.75
2022-09-27T14:49:11.695Z,948.65
2022-09-27T14:54:13.371Z,948.77
2022-09-27T14:59:14.977Z,948.68
2022-09-27T15:04:16.822Z,948.7
2022-09-27T15:09:18.337Z,948.73
2022-09-27T15:14:19.733Z,948.76
2022-09-27T15:19:21.193Z,948.78
2022-09-27T15:24:22.408Z,948.66
2022-09-27T15:29:24.355Z,948.7
2022-09-27T15:34:26.496Z,948.77
2022-09-27T15:44:32.786Z,948.72
2022-09-27T15:49:31.788Z,949.17
2022-09-27T15:54:33.552Z,949.21
2022-09-27T15:59:34.782Z,948.99
2022-09-27T16:04:36.361Z,948.9
2022-09-27T16:09:38.377Z,948.98
2022-09-27T16:14:40.245Z,949.13
2022-09-27T16:19:41.961Z,949.09
2022-09-27T16:24:43.199Z,949.18
2022-09-27T16:29:44.921Z,949.24
2022-09-27T16:34:46.752Z,949.23
2022-09-27T16:39:48.508Z,949.18
2022-09-27T16:44:50.331Z,949.16
2022-09-27T16:49:52.235Z,949.15
2022-09-27T16:54:54.250Z,949.12
2022-09-27T16:59:56.156Z,949.16
2022-09-27T17:04:57.996Z,949.62
2022-09-27T17:09:59.247Z,949.5
2022-09-27T17:15:00.654Z,949.41
2022-09-27T17:20:02.717Z,949.53
2022-09-27T17:25:04.018Z,949.53
2022-09-27T17:30:05.776Z,949.45
2022-09-27T17:35:07.447Z,949.44
2022-09-27T17:40:08.894Z,949.31
2022-09-27T17:45:10.867Z,949.35
2022-09-27T17:50:12.318Z,949.43
2022-09-27T17:55:13.600Z,949.34
2022-09-27T18:00:15.049Z,949.35
2022-09-27T18:05:16.488Z,949.4
2022-09-27T18:10:18.183Z,949.38
2022-09-27T18:15:19.542Z,949.48
2022-09-27T18:20:21.037Z,949.45
2022-09-27T18:25:22.839Z,949.33
2022-09-27T18:30:24.173Z,949.45
2022-09-27T18:35:26.001Z,949.47
2022-09-27T18:40:44.745Z,949.6
2022-09-27T18:45:29.935Z,949.72
2022-09-27T18:50:31.879Z,949.72
2022-09-27T18:55:33.719Z,949.78
2022-09-27T19:00:35.411Z,949.81
2022-09-27T19:05:36.910Z,949.85
2022-09-27T19:10:38.240Z,949.9
2022-09-27T19:15:40.124Z,949.95
2022-09-27T19:20:41.514Z,949.89
2022-09-27T19:25:42.879Z,949.89
2022-09-27T19:30:44.970Z,949.84
2022-09-27T19:35:46.408Z,949.95
2022-09-27T19:40:47.918Z,949.96
2022-09-27T19:45:49.125Z,949.86
2022-09-27T19:50:50.622Z,949.9
2022-09-27T19:55:52.547Z,949.89
2022-09-27T20:00:54.646Z,949.88
2022-09-27T20:05:56.502Z,949.86
2022-09-27T20:11:01.379Z,949.87
2022-09-27T20:16:00.561Z,949.83
2022-09-27T20:21:02.109Z,949.84
2022-09-27T20:26:03.411Z,949.79
2022-09-27T20:31:05.444Z,949.74
2022-09-27T20:36:07.199Z,949.68
2022-09-27T20:41:08.467Z,949.63
2022-09-27T20:46:09.744Z,949.61
2022-09-27T20:51:11.098Z,949.57
2022-09-27T20:56:12.357Z,949.55
2022-09-27T21:01:14.451Z,949.54
2022-09-27T21:06:16.536Z,949.62
2022-09-27T21:11:18.480Z,949.61
2022-09-27T21:16:20.664Z,949.6
2022-09-27T21:21:22.713Z,949.62
2022-09-27T21:26:23.924Z,949.61
2022-09-27T21:31:26.007Z,949.98
2022-09-27T21:36:27.821Z,949.91
2022-09-27T21:41:29.667Z,949.82
2022-09-27T21:46:31.483Z,949.8
2022-09-27T21:51:32.952Z,949.78
2022-09-27T21:56:34.699Z,949.78
2022-09-27T22:11:58.776Z,949.89
2022-09-27T22:16:40.457Z,949.78
2022-09-27T22:21:41.963Z,949.73
2022-09-27T22:26:43.210Z,949.6
2022-09-27T22:31:44.769Z,949.63
2022-09-27T22:36:46.362Z,949.57
2022-09-27T22:41:47.987Z,949.61
2022-09-27T22:46:49.718Z,949.43
2022-09-27T22:51:50.788Z,949.29
2022-09-27T22:56:52.588Z,949.32
2022-09-27T23:01:54.631Z,949.44
2022-09-27T23:06:56.691Z,949.27
2022-09-27T23:11:58.774Z,949.35
2022-09-27T23:17:00.493Z,949.28
2022-09-27T23:22:02.194Z,949.27
2022-09-27T23:27:04.351Z,949.16
2022-09-27T23:32:06.119Z,949.13
2022-09-27T23:37:08.011Z,949.05
2022-09-27T23:42:09.666Z,949.08
2022-09-27T23:47:11.634Z,948.98
